Time;durP1;ratioP1;P1;durP2;ratioP2;P2;SDS_P1;SDS_P2;PMS_P1;PMS_P2;Temp;Humidity;BMP_temperature;BMP_pressure;BME280_temperature;BME280_humidity;BME280_pressure;Samples;Min_cycle;Max_cycle;Signal;HPM_P1;HPM_P2
2021/07/19 00:01:56;;;;;;;6.00;3.20;;;21.80;81.20;;;;;;4999737;28;20132;-88
2021/07/19 00:04:23;;;;;;;5.97;3.58;;;21.80;81.40;;;;;;5000513;28;20467;-88
2021/07/19 00:06:48;;;;;;;5.47;3.70;;;21.80;81.60;;;;;;5016218;28;20058;-89
2021/07/19 00:09:16;;;;;;;7.38;4.10;;;21.70;81.80;;;;;;5027063;28;20045;-89
2021/07/19 00:11:42;;;;;;;7.40;3.58;;;21.70;81.70;;;;;;5020377;28;20071;-89
2021/07/19 00:14:08;;;;;;;7.72;4.13;;;21.60;81.40;;;;;;5016194;28;20470;-89
2021/07/19 00:16:35;;;;;;;5.43;3.28;;;21.60;82.20;;;;;;4983622;28;20026;-89
2021/07/19 00:19:01;;;;;;;6.95;4.00;;;21.50;82.10;;;;;;5000005;28;20376;-90
2021/07/19 00:21:27;;;;;;;6.80;4.03;;;21.50;82.20;;;;;;5033727;28;20013;-89
2021/07/19 00:23:52;;;;;;;6.60;4.03;;;21.50;82.50;;;;;;5015902;28;20461;-89
2021/07/19 00:26:19;;;;;;;6.22;3.92;;;21.40;82.50;;;;;;4999239;28;20470;-89
2021/07/19 00:28:46;;;;;;;6.57;3.60;;;21.40;82.50;;;;;;5020871;28;20043;-88
2021/07/19 00:31:12;;;;;;;7.05;3.90;;;21.30;82.50;;;;;;4999393;28;20033;-89
2021/07/19 00:33:38;;;;;;;6.70;4.07;;;21.30;82.60;;;;;;5015857;28;20029;-89
2021/07/19 00:36:05;;;;;;;7.75;4.55;;;21.30;83.20;;;;;;4983282;28;20108;-89
2021/07/19 00:38:31;;;;;;;6.30;3.80;;;21.20;82.90;;;;;;4999407;28;20032;-89
2021/07/19 00:40:57;;;;;;;5.88;3.80;;;21.20;83.10;;;;;;4982809;28;20018;-89
2021/07/19 00:43:23;;;;;;;5.97;3.75;;;21.10;83.10;;;;;;5012386;28;20053;-89
2021/07/19 00:45:48;;;;;;;5.97;3.90;;;21.10;83.20;;;;;;5015523;28;20103;-88
2021/07/19 00:48:16;;;;;;;6.63;4.03;;;21.10;83.20;;;;;;4998757;28;20105;-89
2021/07/19 00:50:42;;;;;;;5.68;4.13;;;21.00;83.80;;;;;;5015464;28;20018;-89
2021/07/19 00:53:10;;;;;;;7.90;4.32;;;21.00;84.00;;;;;;4999044;28;20087;-89
2021/07/19 00:55:42;;;;;;;7.78;4.05;;;21.00;83.90;;;;;;5032917;28;20022;-89
2021/07/19 00:58:09;;;;;;;5.95;3.90;;;20.90;83.70;;;;;;5023883;28;20030;-89
2021/07/19 01:00:38;;;;;;;8.20;4.28;;;20.90;83.80;;;;;;5015055;28;20034;-88
2021/07/19 01:03:05;;;;;;;8.07;4.20;;;20.80;83.60;;;;;;5032813;28;20044;-88
2021/07/19 01:05:31;;;;;;;7.88;4.20;;;20.80;84.20;;;;;;5014007;28;20025;-88
2021/07/19 01:07:58;;;;;;;7.43;4.03;;;20.70;84.40;;;;;;5018970;28;20021;-89
2021/07/19 01:10:24;;;;;;;8.50;4.38;;;20.70;84.30;;;;;;5027889;28;20029;-89
2021/07/19 01:12:53;;;;;;;6.70;4.15;;;20.70;84.60;;;;;;5015041;28;20128;-88
2021/07/19 01:15:21;;;;;;;7.10;4.30;;;20.60;84.00;;;;;;5032764;28;20029;-89
2021/07/19 01:17:47;;;;;;;6.38;3.90;;;20.60;85.00;;;;;;5033585;28;20025;-89
2021/07/19 01:20:13;;;;;;;6.20;4.25;;;20.60;85.00;;;;;;5006977;28;20391;-89
2021/07/19 01:23:14;;;;;;;7.30;4.25;;;20.50;85.40;;;;;;5014555;28;20332;-89
2021/07/19 01:25:58;;;;;;;7.60;4.43;;;20.50;85.70;;;;;;5020486;28;20030;-89
2021/07/19 01:28:44;;;;;;;7.95;4.20;;;20.40;85.70;;;;;;5015875;28;20033;-89
2021/07/19 01:31:19;;;;;;;8.30;4.68;;;20.40;85.30;;;;;;4998446;28;20072;-89
2021/07/19 01:33:51;;;;;;;8.13;4.50;;;20.30;85.50;;;;;;5004990;28;20509;-89
2021/07/19 01:36:22;;;;;;;6.60;4.28;;;20.30;85.70;;;;;;5030677;28;20064;-89
2021/07/19 01:38:47;;;;;;;;;;;20.30;86.10;;;;;;5034265;28;20040;-89
2021/07/19 01:41:17;;;;;;;7.50;4.55;;;20.20;86.60;;;;;;5016829;28;19909;-89
2021/07/19 01:43:45;;;;;;;11.30;5.10;;;20.20;86.30;;;;;;5016450;28;20486;-88
2021/07/19 01:46:13;;;;;;;8.57;4.13;;;20.20;86.60;;;;;;5021797;28;20026;-88
2021/07/19 01:48:39;;;;;;;7.07;4.05;;;20.10;86.80;;;;;;5005306;28;20025;-89
2021/07/19 01:51:05;;;;;;;9.32;4.30;;;20.10;86.70;;;;;;4999106;28;20048;-89
2021/07/19 01:53:32;;;;;;;7.90;4.63;;;20.10;87.20;;;;;;4998255;28;20479;-88
2021/07/19 01:55:59;;;;;;;7.93;4.65;;;20.10;87.10;;;;;;5032173;28;20029;-89
2021/07/19 01:58:26;;;;;;;7.72;4.50;;;20.00;86.80;;;;;;5028326;28;20029;-89
2021/07/19 02:00:53;;;;;;;7.32;4.03;;;20.00;87.20;;;;;;4998349;28;20125;-89
2021/07/19 02:03:19;;;;;;;9.30;4.68;;;20.00;87.30;;;;;;4998233;28;20079;-89
2021/07/19 02:05:48;;;;;;;8.68;4.40;;;20.00;87.00;;;;;;5010683;28;20013;-88
2021/07/19 02:08:16;;;;;;;8.30;4.97;;;19.90;87.20;;;;;;5011211;28;20018;-88
2021/07/19 02:10:49;;;;;;;6.95;4.32;;;19.90;87.80;;;;;;5011443;28;20069;-89
2021/07/19 02:13:17;;;;;;;7.82;4.47;;;19.90;87.80;;;;;;5031036;28;20026;-89
2021/07/19 02:15:44;;;;;;;6.55;4.20;;;19.80;87.80;;;;;;4997819;28;20445;-89
2021/07/19 02:18:13;;;;;;;8.20;4.90;;;19.80;88.00;;;;;;5022022;28;20025;-89
2021/07/19 02:20:41;;;;;;;8.05;4.82;;;19.80;88.10;;;;;;5030662;28;20160;-89
2021/07/19 02:23:07;;;;;;;8.45;4.75;;;19.70;88.60;;;;;;5032107;28;20034;-89
2021/07/19 02:25:34;;;;;;;7.35;4.72;;;19.70;87.70;;;;;;4998177;28;20025;-89
2021/07/19 02:28:01;;;;;;;8.00;4.55;;;19.60;88.10;;;;;;4984557;28;20418;-89
2021/07/19 02:30:27;;;;;;;6.63;4.28;;;19.60;88.20;;;;;;5014250;28;20544;-89
2021/07/19 02:32:56;;;;;;;5.30;4.13;;;19.60;88.20;;;;;;5025815;28;20487;-89
2021/07/19 02:35:24;;;;;;;8.32;4.80;;;19.60;88.20;;;;;;5015500;28;20106;-88
2021/07/19 02:37:52;;;;;;;9.82;5.07;;;19.60;88.20;;;;;;4993448;28;20099;-88
2021/07/19 02:40:19;;;;;;;7.10;4.20;;;19.50;88.10;;;;;;5015009;28;20029;-88
2021/07/19 02:42:51;;;;;;;8.73;4.85;;;19.50;88.10;;;;;;5001400;28;20029;-89
2021/07/19 02:45:19;;;;;;;7.50;4.30;;;19.50;88.40;;;;;;5017660;28;20037;-89
2021/07/19 02:47:46;;;;;;;7.53;4.13;;;19.40;88.50;;;;;;5001812;28;20076;-88
2021/07/19 02:50:17;;;;;;;7.10;4.22;;;19.40;88.90;;;;;;5016246;28;20018;-89
2021/07/19 02:52:45;;;;;;;7.88;5.30;;;19.30;88.90;;;;;;5029778;28;20021;-89
2021/07/19 02:55:13;;;;;;;9.32;5.07;;;19.30;88.90;;;;;;5001281;28;20434;-90
2021/07/19 02:57:39;;;;;;;7.25;5.03;;;19.30;88.90;;;;;;5014434;28;20464;-89
2021/07/19 03:00:10;;;;;;;9.77;4.88;;;19.20;89.30;;;;;;5003089;28;20029;-89
2021/07/19 03:02:59;;;;;;;6.95;5.03;;;19.20;89.30;;;;;;5035031;28;20032;-89
2021/07/19 03:05:32;;;;;;;8.40;4.63;;;19.20;89.80;;;;;;5017229;28;20434;-89
2021/07/19 03:07:58;;;;;;;7.18;4.30;;;19.20;89.90;;;;;;5016386;28;20032;-89
2021/07/19 03:10:27;;;;;;;6.95;4.35;;;19.10;89.90;;;;;;5017231;28;20026;-89
2021/07/19 03:12:58;;;;;;;7.18;4.55;;;19.10;90.10;;;;;;5017319;28;20027;-89
2021/07/19 03:15:28;;;;;;;;;;;19.10;90.20;;;;;;5017787;28;20053;-88
2021/07/19 03:17:56;;;;;;;6.67;4.17;;;19.00;90.20;;;;;;5017145;28;19905;-89
2021/07/19 03:20:23;;;;;;;8.70;4.70;;;19.00;90.20;;;;;;5016992;28;20260;-89
2021/07/19 03:22:52;;;;;;;10.02;4.45;;;18.90;90.50;;;;;;5017460;28;20033;-89
2021/07/19 03:25:23;;;;;;;6.00;4.00;;;18.90;90.40;;;;;;5005584;28;20034;-89
2021/07/19 03:27:51;;;;;;;8.90;4.55;;;18.90;90.40;;;;;;5034461;28;20514;-88
2021/07/19 03:30:18;;;;;;;8.93;4.70;;;18.90;90.50;;;;;;5000998;28;20034;-88
2021/07/19 03:32:45;;;;;;;8.60;4.63;;;18.90;90.60;;;;;;5016976;28;20030;-89
2021/07/19 03:35:11;;;;;;;7.10;4.45;;;18.80;90.60;;;;;;5014294;28;20034;-89
2021/07/19 03:37:38;;;;;;;7.32;4.40;;;18.80;90.40;;;;;;5000667;28;20463;-89
2021/07/19 03:40:06;;;;;;;8.85;4.72;;;18.80;90.70;;;;;;4986984;28;20029;-90
2021/07/19 03:42:34;;;;;;;7.30;4.97;;;18.80;90.60;;;;;;5000169;28;20132;-89
2021/07/19 03:45:00;;;;;;;7.65;4.38;;;18.70;90.60;;;;;;5016523;28;20057;-89
2021/07/19 03:47:27;;;;;;;8.35;4.63;;;18.70;90.70;;;;;;5000282;28;20469;-89
2021/07/19 03:49:55;;;;;;;7.63;4.40;;;18.70;90.80;;;;;;4985091;28;20573;-88
2021/07/19 03:52:22;;;;;;;8.38;5.03;;;18.70;90.90;;;;;;5003093;28;20048;-87
2021/07/19 03:54:47;;;;;;;9.13;4.80;;;18.70;91.00;;;;;;5016566;28;20061;-88
2021/07/19 03:57:14;;;;;;;7.10;4.50;;;18.60;91.10;;;;;;5000019;28;20431;-88
2021/07/19 03:59:40;;;;;;;9.35;4.80;;;18.60;91.20;;;;;;5016484;28;20060;-89
2021/07/19 04:02:12;;;;;;;8.77;4.57;;;18.60;91.20;;;;;;5000019;28;20029;-89
2021/07/19 04:04:51;;;;;;;8.93;5.20;;;18.60;91.20;;;;;;5013359;28;20113;-89
2021/07/19 04:07:17;;;;;;;7.10;4.45;;;18.60;91.20;;;;;;5013527;28;20025;-88
2021/07/19 04:09:43;;;;;;;8.23;4.80;;;18.50;91.40;;;;;;5000295;28;20387;-88
2021/07/19 04:13:06;;;;;;;7.97;4.90;;;18.60;91.50;;;;;;4999118;28;20036;-88
2021/07/19 04:15:34;;;;;;;9.40;4.78;;;18.60;91.60;;;;;;5028639;28;20025;-89
2021/07/19 04:17:59;;;;;;;7.70;4.45;;;18.60;91.70;;;;;;5021330;28;20144;-88
2021/07/19 04:20:25;;;;;;;7.03;4.47;;;18.50;91.70;;;;;;5000073;28;20120;-88
2021/07/19 04:22:53;;;;;;;8.10;4.78;;;18.50;91.60;;;;;;4999752;28;20018;-89
2021/07/19 04:25:19;;;;;;;7.93;4.90;;;18.50;91.70;;;;;;4999974;28;20021;-88
2021/07/19 04:27:45;;;;;;;7.53;4.55;;;18.50;91.70;;;;;;5001034;28;20045;-89
2021/07/19 04:30:12;;;;;;;7.43;4.70;;;18.50;91.90;;;;;;4989408;28;20025;-88
2021/07/19 04:32:50;;;;;;;7.55;4.60;;;18.50;92.00;;;;;;5007273;28;20022;-88
2021/07/19 04:35:20;;;;;;;8.23;4.30;;;18.50;92.10;;;;;;5020581;28;20040;-89
2021/07/19 04:37:50;;;;;;;6.85;4.25;;;18.50;92.10;;;;;;5018853;28;20026;-89
2021/07/19 04:40:17;;;;;;;6.80;4.45;;;18.50;92.30;;;;;;5018958;28;20032;-89
2021/07/19 04:42:43;;;;;;;6.40;4.78;;;18.50;92.30;;;;;;5020881;28;20026;-88
2021/07/19 04:45:09;;;;;;;9.18;4.72;;;18.50;92.40;;;;;;5002006;28;20064;-89
2021/07/19 04:50:39;;;;;;;6.75;4.32;;;18.50;92.70;;;;;;5020673;28;20041;-88
2021/07/19 04:53:05;;;;;;;8.77;4.85;;;18.50;92.70;;;;;;5002729;28;20056;-90
2021/07/19 04:55:32;;;;;;;6.40;4.38;;;18.50;92.70;;;;;;4991343;28;20099;-90
2021/07/19 04:57:59;;;;;;;7.93;4.78;;;18.50;92.90;;;;;;5011425;28;20081;-89
2021/07/19 05:00:26;;;;;;;7.75;4.60;;;18.50;92.90;;;;;;5010323;28;20052;-89
2021/07/19 05:09:33;;;;;;;7.47;4.43;;;18.50;93.20;;;;;;5001604;28;20040;-87
2021/07/19 05:11:59;;;;;;;6.00;4.07;;;18.50;93.40;;;;;;4994524;28;20140;-88
2021/07/19 05:14:25;;;;;;;9.45;4.25;;;18.60;93.40;;;;;;4971632;28;20125;-89
2021/07/19 05:16:54;;;;;;;9.10;5.28;;;18.60;93.40;;;;;;4997217;28;20117;-88
2021/07/19 05:19:21;;;;;;;8.60;4.93;;;18.60;93.40;;;;;;4994592;28;20034;-89
2021/07/19 05:21:46;;;;;;;7.32;4.68;;;18.60;93.50;;;;;;4995190;28;20030;-87
2021/07/19 05:24:12;;;;;;;5.85;4.10;;;18.70;93.50;;;;;;4996452;28;20042;-89
2021/07/19 05:26:38;;;;;;;7.07;4.38;;;18.70;93.60;;;;;;4979206;28;20038;-89
2021/07/19 05:29:05;;;;;;;6.38;3.90;;;18.70;93.60;;;;;;5005554;28;20503;-88
2021/07/19 05:31:31;;;;;;;7.07;4.50;;;18.80;93.60;;;;;;5005235;28;20365;-88
2021/07/19 05:33:57;;;;;;;5.75;3.83;;;18.80;93.60;;;;;;4994179;28;20052;-88
2021/07/19 05:36:22;;;;;;;8.55;4.15;;;18.90;93.60;;;;;;5000455;28;20545;-88
2021/07/19 05:38:48;;;;;;;5.93;3.72;;;18.90;93.60;;;;;;5003283;28;20077;-87
2021/07/19 05:41:14;;;;;;;6.20;4.10;;;18.90;93.60;;;;;;4970328;28;20084;-87
2021/07/19 05:43:40;;;;;;;5.97;3.63;;;19.00;93.60;;;;;;5016065;23;20042;-87
2021/07/19 05:46:06;;;;;;;5.25;3.50;;;19.00;93.60;;;;;;5004266;28;20021;-87
2021/07/19 05:48:32;;;;;;;7.70;3.90;;;19.00;93.50;;;;;;4996047;28;20052;-87
2021/07/19 05:50:59;;;;;;;7.43;4.05;;;19.10;93.50;;;;;;5054222;28;20036;-87
2021/07/19 05:53:25;;;;;;;6.18;4.03;;;19.10;93.50;;;;;;5019355;28;20107;-88
2021/07/19 05:55:54;;;;;;;5.45;3.75;;;19.20;93.60;;;;;;5008027;28;20021;-87
2021/07/19 05:58:20;;;;;;;6.07;4.10;;;19.20;93.50;;;;;;5009464;28;20076;-86
2021/07/19 06:00:45;;;;;;;5.40;3.90;;;19.20;93.50;;;;;;4996969;28;20060;-86
2021/07/19 06:03:11;;;;;;;7.55;4.28;;;19.30;93.50;;;;;;4996337;28;20388;-86
2021/07/19 06:05:37;;;;;;;6.55;4.60;;;19.30;93.50;;;;;;5018999;28;20040;-88
2021/07/19 06:08:04;;;;;;;6.10;4.25;;;19.30;93.50;;;;;;5032076;28;20101;-86
2021/07/19 06:10:30;;;;;;;7.45;4.55;;;19.40;93.60;;;;;;5043161;28;20037;-88
2021/07/19 06:12:55;;;;;;;7.30;4.32;;;19.40;93.60;;;;;;5047950;28;20075;-88
2021/07/19 06:15:21;;;;;;;7.30;5.32;;;19.40;93.50;;;;;;5016286;28;20022;-88
2021/07/19 06:17:47;;;;;;;7.25;5.40;;;19.40;93.50;;;;;;5057194;28;20030;-88
2021/07/19 06:20:19;;;;;;;8.10;6.28;;;19.50;93.50;;;;;;5039833;28;20035;-88
2021/07/19 06:22:47;;;;;;;9.52;5.93;;;19.50;93.40;;;;;;5039859;28;20027;-89
2021/07/19 06:25:15;;;;;;;8.98;6.03;;;19.50;93.20;;;;;;5021579;28;20037;-88
2021/07/19 06:27:42;;;;;;;8.20;6.03;;;19.50;93.00;;;;;;5012682;28;20359;-88
2021/07/19 06:30:10;;;;;;;8.38;6.30;;;19.50;92.80;;;;;;5020278;28;20091;-90
2021/07/19 06:32:36;;;;;;;10.15;6.65;;;19.60;93.00;;;;;;5037943;28;20476;-90
2021/07/19 06:35:02;;;;;;;8.18;6.22;;;19.50;92.50;;;;;;5019281;28;20075;-89
2021/07/19 06:37:28;;;;;;;8.82;6.00;;;19.50;92.30;;;;;;5019713;28;20117;-87
2021/07/19 06:39:54;;;;;;;8.48;5.60;;;19.50;92.20;;;;;;5023413;28;20079;-86
2021/07/19 06:42:23;;;;;;;8.85;6.18;;;19.60;92.20;;;;;;4999003;28;20402;-87
2021/07/19 06:44:52;;;;;;;10.95;6.50;;;19.50;92.00;;;;;;5016651;28;20037;-91
2021/07/19 06:47:18;;;;;;;9.35;6.88;;;19.60;92.10;;;;;;5037226;28;20014;-88
2021/07/19 06:49:43;;;;;;;8.73;6.15;;;19.60;91.90;;;;;;5004586;28;20175;-87
2021/07/19 06:52:09;;;;;;;9.02;5.72;;;19.60;91.90;;;;;;5019840;28;20068;-87
2021/07/19 06:54:35;;;;;;;7.43;5.45;;;19.60;91.90;;;;;;5039408;28;20024;-87
2021/07/19 06:57:01;;;;;;;7.82;5.25;;;19.70;92.00;;;;;;5009593;28;20568;-86
2021/07/19 06:59:26;;;;;;;8.55;5.72;;;19.70;92.00;;;;;;5038263;28;20025;-86
2021/07/19 07:01:52;;;;;;;7.50;5.38;;;19.70;92.00;;;;;;5022615;28;20048;-88
2021/07/19 07:04:18;;;;;;;8.45;5.20;;;19.80;92.00;;;;;;5022016;28;20398;-88
2021/07/19 07:06:43;;;;;;;6.35;4.82;;;19.90;92.10;;;;;;5019071;28;20450;-87
2021/07/19 07:09:09;;;;;;;6.72;4.78;;;19.90;92.10;;;;;;5012835;28;20100;-87
2021/07/19 07:11:35;;;;;;;8.77;5.15;;;19.90;92.20;;;;;;5005646;28;20471;-87
2021/07/19 07:14:01;;;;;;;9.70;4.63;;;20.00;92.30;;;;;;5025810;28;20036;-86
2021/07/19 07:16:27;;;;;;;7.65;4.45;;;20.00;92.30;;;;;;5037561;28;20017;-87
2021/07/19 07:18:53;;;;;;;6.60;4.55;;;20.10;92.40;;;;;;5034756;28;20854;-87
2021/07/19 07:21:19;;;;;;;7.63;4.60;;;20.10;92.30;;;;;;5002735;28;20026;-87
2021/07/19 07:23:45;;;;;;;7.38;4.78;;;20.10;92.20;;;;;;5005217;28;20025;-87
2021/07/19 07:26:10;;;;;;;7.25;4.43;;;20.20;92.20;;;;;;5056319;28;20025;-88
2021/07/19 07:28:36;;;;;;;11.48;5.07;;;20.20;92.20;;;;;;5018704;28;20108;-87
2021/07/19 07:31:17;;;;;;;7.95;4.43;;;20.20;92.20;;;;;;5002558;28;20113;-88
2021/07/19 07:37:12;;;;;;;8.23;4.50;;;20.30;92.30;;;;;;5019051;28;20059;-87
2021/07/19 07:39:56;;;;;;;;;;;;;;;;;;;;;
2021/07/19 07:42:31;;;;;;;7.20;4.47;;;20.30;91.90;;;;;;5035510;28;20409;-87
2021/07/19 07:45:09;;;;;;;7.55;4.55;;;20.30;91.80;;;;;;5022929;28;20389;-88
2021/07/19 07:51:17;;;;;;;;;;;;;;;;;;;;;
2021/07/19 07:54:20;;;;;;;;;;;;;;;;;;;;;
2021/07/19 07:56:52;;;;;;;6.57;4.63;;;20.50;91.50;;;;;;5043113;28;20047;-88
2021/07/19 08:02:15;;;;;;;8.25;4.80;;;20.50;91.10;;;;;;5052696;28;20033;-88
2021/07/19 08:04:41;;;;;;;7.78;4.85;;;20.50;91.00;;;;;;5018841;28;20057;-88
2021/07/19 08:07:07;;;;;;;7.90;5.03;;;20.50;91.00;;;;;;5052607;28;20020;-88
2021/07/19 08:10:03;;;;;;;8.85;5.43;;;20.60;90.90;;;;;;5048085;28;20024;-89
2021/07/19 08:12:56;;;;;;;;;;;;;;;;;;;;;
2021/07/19 08:15:25;;;;;;;7.13;4.78;;;20.60;90.60;;;;;;5057976;28;20049;-88
2021/07/19 08:18:17;;;;;;;7.75;4.97;;;20.70;90.20;;;;;;5051334;28;20036;-87
2021/07/19 08:21:02;;;;;;;6.97;4.53;;;20.70;90.10;;;;;;5055237;28;20028;-87
2021/07/19 08:23:46;;;;;;;7.88;4.53;;;20.70;90.10;;;;;;5009278;28;20033;-87
2021/07/19 08:26:17;;;;;;;7.00;4.80;;;20.70;90.00;;;;;;5051896;28;20055;-85
2021/07/19 08:28:48;;;;;;;7.78;4.95;;;20.80;90.00;;;;;;5041508;28;20013;-84
2021/07/19 08:31:17;;;;;;;7.60;5.45;;;20.80;89.90;;;;;;5035674;28;20037;-81
2021/07/19 08:33:43;;;;;;;9.77;5.80;;;20.80;89.20;;;;;;5045778;28;20031;-81
2021/07/19 08:36:09;;;;;;;7.60;5.22;;;20.80;89.10;;;;;;5026433;28;20036;-81
2021/07/19 08:38:34;;;;;;;7.05;5.30;;;20.80;89.00;;;;;;5040318;28;20021;-81
2021/07/19 08:41:00;;;;;;;7.35;4.80;;;20.90;89.20;;;;;;5057361;28;20112;-81
2021/07/19 08:43:55;;;;;;;7.55;5.40;;;20.90;89.20;;;;;;5060550;28;20037;-85
2021/07/19 08:46:20;;;;;;;7.38;5.55;;;21.00;88.70;;;;;;5022192;28;20136;-83
2021/07/19 08:48:51;;;;;;;8.27;5.60;;;21.00;88.50;;;;;;5009879;28;20032;-84
2021/07/19 08:51:20;;;;;;;7.05;5.20;;;21.00;88.30;;;;;;5015394;28;20056;-83
2021/07/19 08:53:51;;;;;;;7.88;5.47;;;21.00;88.70;;;;;;5027590;28;20033;-83
2021/07/19 08:56:19;;;;;;;8.07;5.65;;;21.00;89.00;;;;;;5030008;28;20084;-83
2021/07/19 08:58:45;;;;;;;9.10;5.43;;;21.00;88.40;;;;;;5054078;28;20026;-84
2021/07/19 09:01:12;;;;;;;8.25;5.40;;;21.00;89.00;;;;;;5026074;28;20049;-83
2021/07/19 09:03:38;;;;;;;7.75;5.20;;;21.00;88.40;;;;;;5034566;28;20036;-85
2021/07/19 09:06:25;;;;;;;7.68;5.20;;;21.00;88.30;;;;;;5035069;28;20053;-88
2021/07/19 09:08:53;;;;;;;7.97;5.07;;;21.00;88.40;;;;;;5040314;28;20094;-87
2021/07/19 09:11:24;;;;;;;7.53;5.40;;;21.10;88.60;;;;;;5025660;28;20028;-87
2021/07/19 09:14:14;;;;;;;6.97;5.03;;;21.10;88.90;;;;;;5033673;28;20101;-88
2021/07/19 09:16:45;;;;;;;8.40;5.03;;;21.10;88.90;;;;;;5009058;28;20054;-87
2021/07/19 09:19:13;;;;;;;8.25;5.35;;;21.10;88.70;;;;;;5019805;28;20093;-86
2021/07/19 09:21:42;;;;;;;9.38;5.95;;;21.10;89.00;;;;;;5029360;28;20028;-87
2021/07/19 09:24:14;;;;;;;9.15;5.45;;;21.20;89.20;;;;;;5036715;28;20021;-88
2021/07/19 09:26:43;;;;;;;8.13;5.20;;;21.20;89.20;;;;;;5043886;28;20032;-87
2021/07/19 09:29:11;;;;;;;8.43;5.90;;;21.20;89.30;;;;;;5026734;28;20026;-87
2021/07/19 09:31:41;;;;;;;8.32;5.80;;;21.20;89.40;;;;;;5028394;28;20020;-87
2021/07/19 09:34:24;;;;;;;9.40;5.57;;;21.20;89.40;;;;;;5021909;28;20021;-87
2021/07/19 09:37:13;;;;;;;7.88;5.72;;;21.30;89.70;;;;;;5025386;28;20540;-87
2021/07/19 09:39:45;;;;;;;9.40;5.80;;;21.30;89.60;;;;;;5045094;28;20041;-88
2021/07/19 09:42:17;;;;;;;7.18;5.30;;;21.30;89.10;;;;;;5044587;28;20026;-87
2021/07/19 09:44:54;;;;;;;7.93;5.70;;;21.40;88.90;;;;;;5030188;28;20060;-87
2021/07/19 09:47:31;;;;;;;7.55;5.35;;;21.40;89.30;;;;;;5032626;28;20027;-87
2021/07/19 09:49:59;;;;;;;8.80;5.72;;;21.40;89.80;;;;;;5030025;28;20124;-88
2021/07/19 09:52:33;;;;;;;7.57;5.50;;;21.50;89.30;;;;;;5039280;28;20028;-87
2021/07/19 09:54:58;;;;;;;8.02;5.03;;;21.60;89.50;;;;;;5036965;28;20025;-88
2021/07/19 09:57:24;;;;;;;6.60;4.88;;;21.60;88.90;;;;;;5034317;28;20073;-87
2021/07/19 09:59:59;;;;;;;8.35;5.57;;;21.60;88.80;;;;;;5020685;28;20022;-87
2021/07/19 10:02:39;;;;;;;8.02;5.70;;;21.70;88.80;;;;;;5018267;28;20036;-87
2021/07/19 10:05:11;;;;;;;8.70;5.50;;;21.80;88.50;;;;;;5019982;28;20057;-87
2021/07/19 10:07:45;;;;;;;8.30;5.45;;;21.80;88.50;;;;;;5019801;28;20013;-86
2021/07/19 10:10:11;;;;;;;7.53;5.40;;;21.80;88.10;;;;;;5020198;28;20010;-85
2021/07/19 10:12:37;;;;;;;8.38;6.03;;;21.80;88.00;;;;;;5020973;28;20006;-86
2021/07/19 10:15:05;;;;;;;8.13;5.25;;;21.80;88.00;;;;;;5037696;28;20014;-87
2021/07/19 10:17:33;;;;;;;7.32;5.28;;;21.90;88.10;;;;;;5033135;28;20013;-86
2021/07/19 10:20:02;;;;;;;9.35;5.50;;;21.90;88.10;;;;;;5021804;28;20033;-87
2021/07/19 10:22:28;;;;;;;7.20;5.50;;;21.90;88.00;;;;;;5035800;28;20036;-86
2021/07/19 10:24:54;;;;;;;7.03;4.82;;;22.00;88.00;;;;;;5031808;28;20101;-87
2021/07/19 10:27:27;;;;;;;6.82;5.15;;;22.00;87.60;;;;;;5024220;28;20030;-86
2021/07/19 10:29:53;;;;;;;7.65;5.38;;;22.10;87.20;;;;;;5035243;28;20064;-86
2021/07/19 10:32:22;;;;;;;7.68;5.57;;;22.10;87.40;;;;;;5034775;28;20022;-86
2021/07/19 10:34:54;;;;;;;7.22;5.65;;;22.20;87.30;;;;;;5038772;28;20024;-87
2021/07/19 10:37:29;;;;;;;8.63;5.07;;;22.30;87.00;;;;;;5029630;28;20028;-86
2021/07/19 10:39:57;;;;;;;7.20;5.32;;;22.30;86.70;;;;;;5031641;28;20029;-87
2021/07/19 10:42:47;;;;;;;8.65;5.45;;;22.40;86.60;;;;;;5032097;28;20086;-87
2021/07/19 10:45:39;;;;;;;7.10;5.45;;;22.40;86.20;;;;;;5018364;28;20042;-89
2021/07/19 10:48:05;;;;;;;7.32;5.60;;;22.50;85.90;;;;;;5036782;28;20029;-88
2021/07/19 10:50:42;;;;;;;8.20;6.32;;;22.50;85.80;;;;;;5006060;28;20137;-88
2021/07/19 10:53:17;;;;;;;7.47;5.70;;;22.60;86.00;;;;;;5022841;28;20079;-88
2021/07/19 10:55:44;;;;;;;9.68;5.72;;;22.60;85.70;;;;;;5023612;28;20053;-88
2021/07/19 10:58:18;;;;;;;10.13;6.05;;;22.60;85.10;;;;;;5011898;28;20038;-88
2021/07/19 11:00:47;;;;;;;8.55;5.90;;;22.60;85.80;;;;;;5029640;28;20025;-88
2021/07/19 11:03:16;;;;;;;8.10;6.20;;;22.50;86.00;;;;;;5039255;28;20100;-87
2021/07/19 11:05:49;;;;;;;8.85;6.25;;;22.60;86.60;;;;;;5028754;28;20048;-87
2021/07/19 11:08:19;;;;;;;8.80;6.10;;;22.60;85.80;;;;;;5044137;28;20029;-86
2021/07/19 11:10:46;;;;;;;8.45;6.60;;;22.60;85.60;;;;;;5045913;28;20032;-87
2021/07/19 11:13:33;;;;;;;8.02;6.35;;;22.60;86.00;;;;;;5043572;28;20079;-87
2021/07/19 11:16:00;;;;;;;8.18;6.43;;;22.60;85.70;;;;;;5042756;28;20077;-87
2021/07/19 11:18:38;;;;;;;9.35;6.25;;;22.70;85.80;;;;;;5022458;28;20045;-88
2021/07/19 11:21:37;;;;;;;;;;;;;;;;;;;;;
2021/07/19 11:25:06;;;;;;;7.88;5.70;;;22.70;85.90;;;;;;5039088;28;20478;-88
2021/07/19 11:27:56;;;;;;;9.15;6.22;;;22.80;86.60;;;;;;4940716;28;20036;-88
2021/07/19 11:30:25;;;;;;;9.23;5.60;;;22.80;86.40;;;;;;5026667;28;20025;-88
2021/07/19 11:32:51;;;;;;;7.20;5.18;;;22.90;86.10;;;;;;5031811;28;20026;-88
2021/07/19 11:35:18;;;;;;;7.63;5.95;;;23.00;85.80;;;;;;5034661;28;20033;-88
2021/07/19 11:37:51;;;;;;;8.07;5.90;;;23.10;85.50;;;;;;5027086;28;20037;-88
2021/07/19 11:40:28;;;;;;;9.15;5.88;;;23.20;85.30;;;;;;5024155;28;20032;-88
2021/07/19 11:42:55;;;;;;;8.05;5.93;;;23.20;84.90;;;;;;5049208;28;20026;-89
2021/07/19 11:45:21;;;;;;;9.82;6.30;;;23.30;85.00;;;;;;5013224;23;20589;-85
2021/07/19 11:47:51;;;;;;;7.32;6.13;;;23.40;84.90;;;;;;4996492;28;20057;-85
2021/07/19 11:50:19;;;;;;;9.35;6.20;;;23.40;84.90;;;;;;4996153;28;20038;-85
2021/07/19 11:52:46;;;;;;;10.00;6.28;;;23.60;84.30;;;;;;5010103;28;20104;-85
2021/07/19 11:55:14;;;;;;;7.57;5.47;;;23.60;83.90;;;;;;4985384;28;20084;-85
2021/07/19 11:57:46;;;;;;;7.50;5.95;;;23.80;83.70;;;;;;5015239;28;20034;-84
2021/07/19 12:00:22;;;;;;;8.75;6.50;;;23.80;83.10;;;;;;5015108;28;20025;-85
2021/07/19 12:02:56;;;;;;;8.65;6.60;;;23.90;82.10;;;;;;5003519;28;20104;-85
2021/07/19 12:05:23;;;;;;;8.63;7.30;;;23.90;82.30;;;;;;5051202;28;20029;-85
2021/07/19 12:07:59;;;;;;;9.30;7.22;;;24.00;82.20;;;;;;5009509;28;20041;-84
2021/07/19 12:10:25;;;;;;;9.85;7.40;;;24.00;81.60;;;;;;5025376;28;20021;-85
2021/07/19 12:12:51;;;;;;;9.38;7.28;;;24.00;81.60;;;;;;5002636;28;20018;-84
2021/07/19 12:15:16;;;;;;;10.07;7.57;;;24.10;81.00;;;;;;4993805;28;20499;-84
2021/07/19 12:17:43;;;;;;;10.00;7.38;;;24.10;80.90;;;;;;5007330;28;20037;-85
2021/07/19 12:20:11;;;;;;;10.57;7.05;;;24.10;81.60;;;;;;5014886;28;20077;-84
2021/07/19 12:22:37;;;;;;;9.20;7.35;;;24.10;81.40;;;;;;4999715;28;20029;-85
2021/07/19 12:25:04;;;;;;;9.43;6.68;;;24.10;81.70;;;;;;4999522;28;20033;-85
2021/07/19 12:27:30;;;;;;;10.95;7.53;;;24.10;81.00;;;;;;4983446;28;20382;-85
2021/07/19 12:29:56;;;;;;;10.18;7.38;;;24.10;81.50;;;;;;4990269;28;20025;-86
2021/07/19 12:32:23;;;;;;;9.10;7.30;;;24.10;81.90;;;;;;4997258;28;20036;-85
2021/07/19 12:34:49;;;;;;;9.43;7.68;;;24.10;81.80;;;;;;5014109;28;20029;-85
2021/07/19 12:37:17;;;;;;;9.38;7.22;;;24.10;81.50;;;;;;5010777;28;20033;-85
2021/07/19 12:39:51;;;;;;;9.25;6.72;;;24.10;82.30;;;;;;5013462;28;20486;-85
2021/07/19 12:42:19;;;;;;;9.18;7.13;;;24.10;81.40;;;;;;5013151;28;20030;-86
2021/07/19 12:44:50;;;;;;;10.52;7.57;;;24.10;81.30;;;;;;5031274;28;20096;-85
2021/07/19 12:47:18;;;;;;;9.20;6.88;;;24.10;81.10;;;;;;5015379;28;20024;-85
2021/07/19 12:49:45;;;;;;;8.73;6.40;;;24.20;80.90;;;;;;5015225;28;20024;-85
2021/07/19 12:52:17;;;;;;;10.15;7.07;;;24.20;80.90;;;;;;5012716;28;20475;-85
2021/07/19 12:55:06;;;;;;;10.32;6.78;;;24.30;81.10;;;;;;5032627;28;20025;-85
2021/07/19 12:57:34;;;;;;;10.07;6.78;;;24.40;81.50;;;;;;5032625;28;20036;-85
2021/07/19 13:00:07;;;;;;;9.00;6.65;;;24.50;80.90;;;;;;5014723;28;20390;-85
2021/07/19 13:02:32;;;;;;;8.77;6.50;;;24.60;80.10;;;;;;5014973;28;20029;-85
2021/07/19 13:05:10;;;;;;;9.45;6.65;;;24.60;79.30;;;;;;5003618;28;20057;-85
2021/07/19 13:07:37;;;;;;;8.95;6.32;;;24.70;79.00;;;;;;4996040;28;20025;-85
2021/07/19 13:10:07;;;;;;;8.52;6.55;;;24.70;79.00;;;;;;4997000;28;20032;-85
2021/07/19 13:12:57;;;;;;;8.57;6.70;;;24.80;78.40;;;;;;5032831;28;20025;-86
2021/07/19 13:15:23;;;;;;;9.98;6.82;;;24.80;77.60;;;;;;5031225;28;20022;-86
2021/07/19 13:18:07;;;;;;;9.55;7.15;;;24.90;78.10;;;;;;5014640;28;20037;-86
2021/07/19 13:20:33;;;;;;;10.65;7.00;;;24.90;78.80;;;;;;5032263;28;20471;-85
2021/07/19 13:23:10;;;;;;;9.18;6.90;;;24.90;78.00;;;;;;4985260;28;20040;-85
2021/07/19 13:25:35;;;;;;;9.40;5.85;;;24.90;78.50;;;;;;5018937;28;20094;-86
2021/07/19 13:28:01;;;;;;;8.60;6.50;;;24.90;78.70;;;;;;4998004;28;20128;-86